createdAt,value
2022-08-04T00:02:24.807Z,18.81
2022-08-04T00:05:05.560Z,18.76
2022-08-04T00:07:50.560Z,18.72
2022-08-04T00:10:20.025Z,18.74
2022-08-04T00:12:52.027Z,18.71
2022-08-04T00:15:20.775Z,18.68
2022-08-04T00:18:03.431Z,18.64
2022-08-04T00:20:34.554Z,18.63
2022-08-04T00:23:02.538Z,18.63
2022-08-04T00:25:31.247Z,18.62
2022-08-04T00:28:04.135Z,18.61
2022-08-04T00:30:32.332Z,18.61
2022-08-04T00:33:00.610Z,18.60
2022-08-04T00:35:29.306Z,18.54
2022-08-04T00:37:57.333Z,18.53
2022-08-04T00:40:55.460Z,18.52
2022-08-04T00:44:23.199Z,18.49
2022-08-04T00:47:36.755Z,18.43
2022-08-04T00:50:42.012Z,18.41
2022-08-04T00:53:35.234Z,18.37
2022-08-04T00:56:31.741Z,18.34
2022-08-04T00:59:30.922Z,18.34
2022-08-04T01:02:08.035Z,18.33
2022-08-04T01:05:28.399Z,18.34
2022-08-04T01:08:48.279Z,18.32
2022-08-04T01:11:56.509Z,18.26
2022-08-04T01:15:05.236Z,18.22
2022-08-04T01:17:35.595Z,18.14
2022-08-04T01:20:20.574Z,18.09
2022-08-04T01:23:12.042Z,18.06
2022-08-04T01:26:43.272Z,18.02
2022-08-04T01:29:09.331Z,18.00
2022-08-04T01:32:05.377Z,17.99
2022-08-04T01:35:15.384Z,17.98
2022-08-04T01:38:20.098Z,17.96
2022-08-04T01:41:02.231Z,17.94
2022-08-04T01:43:32.062Z,17.94
2022-08-04T01:46:04.042Z,17.96
2022-08-04T01:48:32.583Z,17.97
2022-08-04T01:51:09.065Z,17.97
2022-08-04T01:53:42.854Z,17.96
2022-08-04T01:56:12.079Z,17.95
2022-08-04T01:58:41.051Z,17.95
2022-08-04T02:01:13.483Z,17.96
2022-08-04T02:04:20.825Z,17.94
2022-08-04T02:06:59.173Z,17.94
2022-08-04T02:10:01.792Z,17.93
2022-08-04T02:12:42.719Z,17.96
2022-08-04T02:15:27.756Z,18.03
2022-08-04T02:18:25.111Z,18.08
2022-08-04T02:21:01.073Z,18.15
2022-08-04T02:23:40.568Z,18.20
2022-08-04T02:26:22.155Z,18.25
2022-08-04T02:29:15.968Z,18.29
2022-08-04T02:31:57.779Z,18.31
2022-08-04T02:35:05.355Z,18.36
2022-08-04T02:37:33.778Z,18.39
2022-08-04T02:40:06.638Z,18.41
2022-08-04T02:42:34.008Z,18.41
2022-08-04T02:45:02.524Z,18.40
2022-08-04T02:48:29.252Z,18.42
2022-08-04T02:50:28.576Z,18.47
2022-08-04T02:53:03.097Z,18.51
2022-08-04T02:55:32.699Z,18.45
2022-08-04T02:58:04.043Z,18.53
2022-08-04T03:00:32.625Z,18.47
2022-08-04T03:03:20.594Z,18.46
2022-08-04T03:06:10.196Z,18.45
2022-08-04T03:09:40.152Z,18.47
2022-08-04T03:13:02.036Z,18.41
2022-08-04T03:15:59.889Z,18.42
2022-08-04T03:19:13.417Z,18.41
2022-08-04T03:22:14.610Z,18.39
2022-08-04T03:25:32.060Z,18.42
2022-08-04T03:28:27.085Z,18.42
2022-08-04T03:31:22.044Z,18.43
2022-08-04T03:34:26.165Z,18.46
2022-08-04T03:37:59.696Z,18.52
2022-08-04T03:40:51.279Z,18.50
2022-08-04T03:43:58.405Z,18.54
2022-08-04T03:46:43.069Z,18.63
2022-08-04T03:49:23.579Z,18.68
2022-08-04T03:53:01.777Z,18.79
2022-08-04T03:55:40.999Z,18.83
2022-08-04T03:58:45.831Z,18.88
2022-08-04T04:02:10.983Z,18.97
2022-08-04T04:04:56.564Z,19.08
2022-08-04T04:08:06.632Z,19.21
2022-08-04T04:10:53.353Z,19.29
2022-08-04T04:14:16.055Z,19.34
2022-08-04T04:17:01.530Z,19.51
2022-08-04T04:19:37.534Z,19.57
2022-08-04T04:22:38.202Z,19.62
2022-08-04T04:25:54.284Z,19.67
2022-08-04T04:29:38.800Z,19.61
2022-08-04T04:32:32.355Z,19.62
2022-08-04T04:35:14.756Z,19.62
2022-08-04T04:37:57.262Z,19.62
2022-08-04T04:41:04.532Z,19.68
2022-08-04T04:44:05.305Z,19.77
2022-08-04T04:46:50.583Z,19.89
2022-08-04T04:49:46.443Z,20.03
2022-08-04T04:52:53.287Z,20.19
2022-08-04T04:55:31.164Z,20.35
2022-08-04T04:58:01.302Z,20.37
2022-08-04T05:01:15.309Z,20.56
2022-08-04T05:04:15.894Z,20.70
2022-08-04T05:06:56.064Z,20.76
2022-08-04T05:10:15.266Z,20.89
2022-08-04T05:14:36.729Z,20.99
2022-08-04T05:16:17.634Z,21.21
2022-08-04T05:19:13.569Z,21.47
2022-08-04T05:21:50.559Z,21.69
2022-08-04T05:24:23.049Z,21.86
2022-08-04T05:27:02.549Z,21.89
2022-08-04T05:29:48.305Z,22.02
2022-08-04T05:32:17.316Z,22.09
2022-08-04T05:34:52.801Z,22.14
2022-08-04T05:37:23.759Z,22.13
2022-08-04T05:40:03.043Z,22.18
2022-08-04T05:42:39.424Z,22.12
2022-08-04T05:45:09.860Z,22.08
2022-08-04T05:47:38.202Z,22.20
2022-08-04T05:58:35.849Z,22.59
2022-08-04T06:20:00.220Z,22.58
2022-08-04T06:23:17.100Z,22.69
2022-08-04T06:26:01.561Z,22.82
2022-08-04T06:28:43.409Z,22.93
2022-08-04T06:32:30.443Z,23.02
2022-08-04T06:34:37.963Z,23.12
2022-08-04T06:37:07.942Z,23.27
2022-08-04T06:49:08.046Z,23.45
2022-08-04T06:52:19.820Z,23.57
2022-08-04T06:55:30.212Z,23.69
2022-08-04T06:58:04.089Z,23.93
2022-08-04T07:00:51.656Z,24.00
2022-08-04T07:03:21.261Z,24.06
2022-08-04T07:05:51.085Z,24.08
2022-08-04T07:08:19.646Z,24.19
2022-08-04T07:10:47.455Z,24.34
2022-08-04T07:13:16.920Z,24.39
2022-08-04T07:15:47.673Z,24.46
2022-08-04T07:18:15.874Z,24.50
2022-08-04T07:20:45.975Z,24.57
2022-08-04T07:23:17.033Z,24.64
2022-08-04T07:25:59.671Z,24.58
2022-08-04T07:28:42.000Z,24.48
2022-08-04T07:31:33.604Z,24.52
2022-08-04T07:34:20.670Z,24.44
2022-08-04T07:36:55.987Z,24.55
2022-08-04T07:39:29.551Z,24.74
2022-08-04T07:42:02.187Z,24.82
2022-08-04T07:44:36.927Z,24.82
2022-08-04T07:47:08.251Z,24.92
2022-08-04T07:49:55.134Z,24.99
2022-08-04T07:52:27.876Z,25.16
2022-08-04T07:54:55.811Z,25.26
2022-08-04T07:57:41.651Z,25.34
2022-08-04T08:00:14.418Z,25.33
2022-08-04T08:02:49.840Z,25.31
2022-08-04T08:05:19.967Z,25.34
2022-08-04T08:07:54.827Z,25.40
2022-08-04T08:10:25.354Z,25.44
2022-08-04T08:12:54.295Z,25.44
2022-08-04T08:15:22.787Z,25.51
2022-08-04T08:17:57.723Z,25.45
2022-08-04T08:20:31.657Z,25.44
2022-08-04T08:23:03.338Z,25.52
2022-08-04T08:25:33.927Z,25.67
2022-08-04T08:28:04.397Z,25.82
2022-08-04T08:30:34.245Z,25.83
2022-08-04T08:33:07.679Z,25.81
2022-08-04T08:36:07.820Z,25.88
2022-08-04T08:38:46.935Z,26.01
2022-08-04T08:41:24.027Z,26.13
2022-08-04T08:44:05.609Z,26.09
2022-08-04T08:47:08.132Z,25.96
2022-08-04T08:50:46.397Z,25.94
2022-08-04T08:54:06.254Z,26.13
2022-08-04T08:56:51.900Z,26.13
2022-08-04T09:00:41.457Z,26.21
2022-08-04T09:03:58.158Z,26.42
2022-08-04T09:07:01.105Z,26.49
2022-08-04T09:09:37.168Z,26.68
2022-08-04T09:12:29.045Z,26.95
2022-08-04T09:15:13.610Z,27.09
2022-08-04T09:17:59.740Z,27.23
2022-08-04T09:21:03.653Z,26.93
2022-08-04T09:23:41.015Z,27.14
2022-08-04T09:26:24.557Z,27.24
2022-08-04T09:29:35.397Z,27.19
2022-08-04T09:32:29.813Z,26.84
2022-08-04T09:35:34.166Z,26.84
2022-08-04T09:38:27.276Z,26.88
2022-08-04T09:41:49.112Z,26.82
2022-08-04T09:44:53.947Z,26.94
2022-08-04T09:48:05.790Z,27.18
2022-08-04T09:50:55.030Z,27.17
2022-08-04T09:54:06.971Z,26.97
2022-08-04T10:00:40.601Z,27.03
2022-08-04T10:03:20.363Z,27.22
2022-08-04T10:06:30.692Z,27.17
2022-08-04T10:09:34.394Z,27.26
2022-08-04T10:12:23.234Z,27.49
2022-08-04T10:15:59.635Z,27.63
2022-08-04T10:19:11.959Z,27.63
2022-08-04T10:22:29.454Z,27.61
2022-08-04T10:24:59.962Z,27.59
2022-08-04T10:27:52.102Z,27.80
2022-08-04T10:30:44.145Z,27.98
2022-08-04T10:41:20.506Z,29.08
2022-08-04T10:44:42.533Z,28.79
2022-08-04T10:47:22.071Z,28.70
2022-08-04T10:53:20.149Z,29.50
2022-08-04T10:56:45.298Z,29.77
2022-08-04T11:04:26.958Z,29.95
2022-08-04T11:07:39.116Z,29.77
2022-08-04T11:10:10.116Z,29.25
2022-08-04T11:22:10.053Z,28.31
2022-08-04T11:25:14.017Z,28.51
2022-08-04T11:59:59.532Z,27.97
2022-08-04T12:15:50.899Z,28.31
2022-08-04T12:20:01.344Z,28.96
2022-08-04T12:27:49.161Z,31.49
2022-08-04T12:30:58.299Z,31.22
2022-08-04T12:33:41.389Z,30.00
2022-08-04T12:36:49.576Z,29.02
2022-08-04T12:39:19.922Z,26.18
2022-08-04T12:42:18.258Z,24.09
2022-08-04T12:44:53.833Z,23.17
2022-08-04T12:47:36.371Z,22.81
2022-08-04T12:50:09.309Z,22.61
2022-08-04T12:53:02.131Z,22.52
2022-08-04T12:55:34.804Z,22.57
2022-08-04T12:58:13.495Z,22.67
2022-08-04T13:02:06.653Z,22.80
2022-08-04T13:04:11.441Z,23.06
2022-08-04T13:06:41.176Z,23.25
2022-08-04T13:09:19.252Z,23.40
2022-08-04T13:12:20.455Z,23.77
2022-08-04T13:14:53.715Z,24.64
2022-08-04T13:17:21.143Z,25.51
2022-08-04T13:19:55.835Z,26.24
2022-08-04T13:22:27.262Z,26.52
2022-08-04T13:26:40.657Z,26.47
2022-08-04T13:27:55.287Z,26.54
2022-08-04T13:30:28.165Z,27.28
2022-08-04T13:33:01.959Z,28.26
2022-08-04T13:35:55.986Z,29.11
2022-08-04T13:39:19.260Z,29.53
2022-08-04T13:41:56.948Z,29.63
2022-08-04T13:48:32.579Z,29.62
2022-08-04T13:51:09.844Z,29.28
2022-08-04T13:53:41.795Z,28.56
2022-08-04T13:56:10.591Z,27.64
2022-08-04T13:58:47.501Z,26.88
2022-08-04T14:01:35.648Z,26.65
2022-08-04T14:04:24.916Z,25.81
2022-08-04T14:07:01.426Z,25.89
2022-08-04T14:09:34.805Z,26.08
2022-08-04T14:12:46.105Z,25.84
2022-08-04T14:15:04.544Z,25.62
2022-08-04T14:17:31.870Z,25.01
2022-08-04T14:20:02.097Z,24.69
2022-08-04T14:22:35.356Z,23.30
2022-08-04T14:25:15.103Z,22.47
2022-08-04T14:27:57.334Z,21.78
2022-08-04T14:31:10.939Z,21.29
2022-08-04T14:34:01.662Z,20.98
2022-08-04T14:41:04.553Z,20.76
2022-08-04T14:43:43.372Z,20.82
2022-08-04T14:46:13.071Z,20.92
2022-08-04T14:50:18.018Z,20.96
2022-08-04T15:04:50.308Z,21.76
2022-08-04T15:07:18.877Z,22.01
2022-08-04T15:10:26.351Z,22.12
2022-08-04T15:12:56.331Z,22.54
2022-08-04T15:57:01.465Z,27.46
2022-08-04T16:01:28.904Z,27.48
2022-08-04T16:08:20.101Z,28.02
2022-08-04T16:10:51.268Z,28.06
2022-08-04T17:05:10.048Z,28.65
2022-08-04T17:14:05.742Z,26.51
2022-08-04T17:36:16.885Z,24.59
2022-08-04T17:38:59.393Z,24.45
2022-08-04T17:41:38.955Z,24.29
2022-08-04T17:44:08.993Z,24.06
2022-08-04T17:46:48.235Z,23.86
2022-08-04T17:49:23.032Z,23.75
2022-08-04T17:52:05.265Z,23.67
2022-08-04T17:54:40.635Z,23.51
2022-08-04T17:57:24.933Z,23.33
2022-08-04T18:00:02.458Z,23.17
2022-08-04T18:02:38.714Z,22.96
2022-08-04T18:05:11.638Z,22.92
2022-08-04T18:19:48.095Z,22.49
2022-08-04T18:22:28.005Z,22.36
2022-08-04T18:24:58.291Z,22.28
2022-08-04T18:27:30.210Z,22.21
2022-08-04T18:30:34.405Z,22.14
2022-08-04T18:33:10.463Z,22.08
2022-08-04T18:36:33.320Z,22.00
2022-08-04T18:38:33.633Z,21.91
2022-08-04T18:41:03.133Z,21.88
2022-08-04T18:43:40.954Z,21.84
2022-08-04T18:46:14.577Z,21.85
2022-08-04T18:48:52.127Z,21.84
2022-08-04T18:51:31.104Z,21.79
2022-08-04T18:54:00.393Z,21.74
2022-08-04T18:56:32.572Z,21.66
2022-08-04T18:59:04.908Z,21.58
2022-08-04T19:02:13.359Z,21.52
2022-08-04T19:04:34.194Z,21.55
2022-08-04T19:07:28.791Z,21.54
2022-08-04T19:09:58.163Z,21.56
2022-08-04T19:16:45.896Z,21.61
2022-08-04T19:26:05.586Z,21.68
2022-08-04T19:28:38.929Z,21.67
2022-08-04T19:31:09.825Z,21.63
2022-08-04T19:33:58.466Z,21.58
2022-08-04T19:36:31.467Z,21.52
2022-08-04T19:39:09.307Z,21.44
2022-08-04T19:45:07.271Z,21.26
2022-08-04T19:48:44.680Z,21.20
2022-08-04T19:51:30.571Z,21.08
2022-08-04T19:54:02.953Z,20.99
2022-08-04T19:56:40.930Z,20.92
2022-08-04T19:59:11.097Z,20.85
2022-08-04T20:01:45.130Z,20.82
2022-08-04T20:04:15.698Z,20.78
2022-08-04T20:10:38.331Z,20.70
2022-08-04T20:14:15.666Z,20.66
2022-08-04T20:18:07.716Z,20.58
2022-08-04T20:20:45.735Z,20.53
2022-08-04T20:23:14.988Z,20.50
2022-08-04T20:26:53.326Z,20.47
2022-08-04T20:29:40.309Z,20.40
2022-08-04T20:32:26.967Z,20.36
2022-08-04T20:35:15.911Z,20.34
2022-08-04T20:37:56.921Z,20.35
2022-08-04T20:40:31.167Z,20.33
2022-08-04T20:43:00.174Z,20.31
2022-08-04T20:45:56.504Z,20.31
2022-08-04T20:48:19.257Z,20.30
2022-08-04T20:50:57.448Z,20.23
2022-08-04T20:56:30.884Z,20.04
2022-08-04T20:59:07.774Z,20.00
2022-08-04T21:01:45.323Z,19.98
2022-08-04T21:04:42.038Z,19.98
2022-08-04T21:07:19.136Z,19.97
2022-08-04T21:09:49.950Z,19.95
2022-08-04T21:12:27.726Z,19.92
2022-08-04T21:15:15.773Z,19.82
2022-08-04T21:17:58.244Z,19.79
2022-08-04T21:20:39.522Z,19.72
2022-08-04T21:23:12.207Z,19.66
2022-08-04T21:25:42.888Z,19.64
2022-08-04T21:28:12.898Z,19.62
2022-08-04T21:30:52.664Z,19.58
2022-08-04T21:33:49.815Z,19.53
2022-08-04T21:36:16.110Z,19.52
2022-08-04T21:38:51.255Z,19.49
2022-08-04T21:41:24.395Z,19.47
2022-08-04T21:43:54.621Z,19.43
2022-08-04T21:46:23.756Z,19.40
2022-08-04T21:48:52.440Z,19.34
2022-08-04T21:52:00.672Z,19.32
2022-08-04T21:54:17.202Z,19.28
2022-08-04T21:56:51.570Z,19.24
2022-08-04T21:59:23.654Z,19.19
2022-08-04T22:02:01.695Z,19.16
2022-08-04T22:04:31.133Z,19.13
2022-08-04T22:07:02.987Z,19.12
2022-08-04T22:09:37.764Z,19.13
2022-08-04T22:12:12.311Z,19.13
2022-08-04T22:14:41.580Z,19.13
2022-08-04T22:17:18.428Z,19.12
2022-08-04T22:19:55.039Z,19.11
2022-08-04T22:22:29.422Z,19.08
2022-08-04T22:25:12.623Z,19.06
2022-08-04T22:28:02.929Z,19.05
2022-08-04T22:30:36.772Z,19.02
2022-08-04T22:33:08.939Z,18.98
2022-08-04T22:35:48.895Z,18.96
2022-08-04T22:38:29.103Z,18.96
2022-08-04T22:41:12.913Z,18.94
2022-08-04T22:43:42.626Z,18.91
2022-08-04T22:46:28.040Z,18.89
2022-08-04T22:48:57.298Z,18.89
2022-08-04T22:51:27.118Z,18.88
2022-08-04T22:53:56.038Z,18.87
2022-08-04T22:56:38.553Z,18.88
2022-08-04T22:59:10.016Z,18.89
2022-08-04T23:02:00.506Z,18.92
2022-08-04T23:04:32.631Z,18.92
2022-08-04T23:07:08.960Z,18.91
2022-08-04T23:09:49.590Z,18.87
2022-08-04T23:12:26.254Z,18.86
2022-08-04T23:14:58.010Z,18.83
2022-08-04T23:17:28.874Z,18.81
2022-08-04T23:19:59.638Z,18.78
2022-08-04T23:22:37.419Z,18.74
2022-08-04T23:25:16.372Z,18.70
2022-08-04T23:27:51.669Z,18.68
2022-08-04T23:30:24.875Z,18.62
2022-08-04T23:32:59.117Z,18.56
2022-08-04T23:35:28.306Z,18.50
2022-08-04T23:38:00.108Z,18.47
2022-08-04T23:40:50.368Z,18.46
2022-08-04T23:43:19.501Z,18.48
2022-08-04T23:46:06.386Z,18.48
2022-08-04T23:48:38.838Z,18.50
2022-08-04T23:51:15.546Z,18.52
2022-08-04T23:54:02.507Z,18.51
2022-08-04T23:56:34.436Z,18.49
2022-08-04T23:59:04.532Z,18.52
